<?xml version="1.0" encoding="UTF-8" standalone="no" ?>
<gpx version="1.1" creator="Visorando" xmlns:xsi="http://www.w3.org/2001/XMLSchema-instance" xmlns="http://www.topografix.com/GPX/1/1" xsi:schemaLocation="http://www.topografix.com/GPX/1/1 http://www.topografix.com/GPX/1/1/gpx.xsd">
 <metadata>
  <name>Les Rochers du Saussois en boucle par la terrasse de Mailly-le-Château</name>
  <link href="https://www.visorando.com/randonnee-les-rochers-du-saussois-en-boucle-par-la/">
   <text>https://www.visorando.com/randonnee-les-rochers-du-saussois-en-boucle-par-la/</text>
  </link>
 </metadata>
 <wpt lat="47.565479" lon="3.648805">
  <ele>139</ele>
  <time>2017-12-07T08:56:39+01:00</time>
  <name>Parking</name>
 </wpt>
 <wpt lat="47.566694" lon="3.645368">
  <ele>154</ele>
  <time>2017-12-07T09:10:53+01:00</time>
  <name>Voie goudronnée</name>
 </wpt>
 <wpt lat="47.566628" lon="3.646798">
  <ele>160</ele>
  <time>2017-12-07T09:12:04+01:00</time>
  <name>Sente à droite entre falaise et route</name>
 </wpt>
 <wpt lat="47.565358" lon="3.653756">
  <ele>177</ele>
  <time>2017-12-07T09:20:58+01:00</time>
  <name>a droite</name>
 </wpt>
 <wpt lat="47.56011" lon="3.654336">
  <ele>190</ele>
  <time>2017-12-07T09:28:10+01:00</time>
  <name>Chemin transversal</name>
 </wpt>
 <wpt lat="47.559953" lon="3.654584">
  <ele>191</ele>
  <time>2017-12-07T09:30:42+01:00</time>
  <name>Chemin transversal</name>
 </wpt>
 <wpt lat="47.556316" lon="3.668364">
  <ele>171</ele>
  <time>2017-12-07T09:51:23+01:00</time>
  <name>a droite en lisieres</name>
 </wpt>
 <wpt lat="47.55655" lon="3.668832">
  <ele>171</ele>
  <time>2017-12-07T09:52:03+01:00</time>
  <name>Champ assez vaste entouré de bois</name>
 </wpt>
 <wpt lat="47.562941" lon="3.671797">
  <ele>199</ele>
  <time>2017-12-07T10:17:30+01:00</time>
  <name>route transversale</name>
 </wpt>
 <wpt lat="47.563255" lon="3.671686">
  <ele>199</ele>
  <time>2017-12-07T10:20:09+01:00</time>
  <name>Route D130 À droite</name>
 </wpt>
 <wpt lat="47.572314" lon="3.672529">
  <ele>174</ele>
  <time>2017-12-07T10:44:23+01:00</time>
  <name>Plate forme d'observation pour la chasse</name>
 </wpt>
 <wpt lat="47.57572" lon="3.674647">
  <ele>183</ele>
  <time>2017-12-07T10:59:53+01:00</time>
  <name>Croisement de 5 chemins</name>
 </wpt>
 <wpt lat="47.58527" lon="3.655721">
  <ele>174</ele>
  <time>2017-12-07T11:34:58+01:00</time>
  <name>toute decmailly merry panneaux prendre le chemin à</name>
 </wpt>
 <wpt lat="47.585606" lon="3.654927">
  <ele>175</ele>
  <time>2017-12-07T11:37:23+01:00</time>
  <name>Croisement de routes</name>
 </wpt>
 <wpt lat="47.581592" lon="3.649244">
  <ele>153</ele>
  <time>2017-12-07T11:44:42+01:00</time>
  <name>a droite monter dans les rochers</name>
 </wpt>
 <wpt lat="47.581478" lon="3.649068">
  <ele>152</ele>
  <time>2017-12-07T11:46:14+01:00</time>
  <name>Sentier dans les rochers</name>
 </wpt>
 <wpt lat="47.585156" lon="3.644099">
  <ele>149</ele>
  <time>2017-12-07T11:56:55+01:00</time>
  <name>Quitter le sentier découverte</name>
 </wpt>
 <wpt lat="47.585545" lon="3.643746">
  <ele>150</ele>
  <time>2017-12-07T11:57:25+01:00</time>
  <name>bien suivre la trace qui s'éloigne de la falaise</name>
 </wpt>
 <wpt lat="47.593563" lon="3.635731">
  <ele>126</ele>
  <time>2017-12-07T12:11:19+01:00</time>
  <name>point de déviation en cas de crues</name>
 </wpt>
 <wpt lat="47.593979" lon="3.635347">
  <ele>130</ele>
  <time>2017-12-07T12:13:02+01:00</time>
  <name>Carrefour de rues</name>
 </wpt>
 <wpt lat="47.597235" lon="3.639883">
  <ele>174</ele>
  <time>2017-12-07T13:14:56+01:00</time>
  <name>Carrefour routier</name>
 </wpt>
 <wpt lat="47.580156" lon="3.638574">
  <ele>147</ele>
  <time>2017-12-07T13:48:48+01:00</time>
  <name>La Rippe, borne incendie</name>
 </wpt>
 <wpt lat="47.572151" lon="3.634068">
  <ele>190</ele>
  <time>2017-12-07T14:08:42+01:00</time>
  <name>Route transversale, station de pompage à gauche</name>
 </wpt>
 <wpt lat="47.566859" lon="3.632255">
  <ele>173</ele>
  <time>2017-12-07T14:29:46+01:00</time>
  <name>Chemin à gauche tracé dans une pelouse sèche</name>
 </wpt>
 <wpt lat="47.563245" lon="3.641461">
  <ele>132</ele>
  <time>2020-05-22T18:01:47+02:00</time>
  <name>Carrefour de rues</name>
 </wpt>
 <wpt lat="47.565478" lon="3.648802">
  <ele>139</ele>
  <time>2017-12-07T15:08:52+01:00</time>
  <name>Parking</name>
 </wpt>
 <trk>
  <name>Les Rochers du Saussois en boucle par la terrasse de Mailly-le-Château</name>
  <trkseg>
   <trkpt lat="47.565479" lon="3.648805">
    <ele>139</ele>
    <time>2017-12-07T08:56:39+01:00</time>
   </trkpt>
   <trkpt lat="47.565485" lon="3.648244">
    <ele>139</ele>
    <time>2017-12-07T08:57:20+01:00</time>
   </trkpt>
   <trkpt lat="47.565597" lon="3.647503">
    <ele>140</ele>
    <time>2017-12-07T08:58:09+01:00</time>
   </trkpt>
   <trkpt lat="47.565659" lon="3.646903">
    <ele>136</ele>
    <time>2017-12-07T08:58:54+01:00</time>
   </trkpt>
   <trkpt lat="47.565716" lon="3.646256">
    <ele>134</ele>
    <time>2017-12-07T08:59:27+01:00</time>
   </trkpt>
   <trkpt lat="47.565799" lon="3.64552">
    <ele>132</ele>
    <time>2017-12-07T08:59:52+01:00</time>
   </trkpt>
   <trkpt lat="47.565863" lon="3.644861">
    <ele>132</ele>
    <time>2017-12-07T09:00:24+01:00</time>
   </trkpt>
   <trkpt lat="47.565904" lon="3.64425">
    <ele>132</ele>
    <time>2017-12-07T09:01:04+01:00</time>
   </trkpt>
   <trkpt lat="47.565983" lon="3.643724">
    <ele>132</ele>
    <time>2017-12-07T09:01:33+01:00</time>
   </trkpt>
   <trkpt lat="47.566128" lon="3.642662">
    <ele>133</ele>
    <time>2017-12-07T09:02:15+01:00</time>
   </trkpt>
   <trkpt lat="47.566186" lon="3.642329">
    <ele>133</ele>
    <time>2017-12-07T09:02:47+01:00</time>
   </trkpt>
   <trkpt lat="47.566418" lon="3.641353">
    <ele>133</ele>
    <time>2017-12-07T09:03:29+01:00</time>
   </trkpt>
   <trkpt lat="47.566488" lon="3.640948">
    <ele>131</ele>
    <time>2017-12-07T09:04:05+01:00</time>
   </trkpt>
   <trkpt lat="47.5666" lon="3.640353">
    <ele>128</ele>
    <time>2017-12-07T09:04:41+01:00</time>
   </trkpt>
   <trkpt lat="47.566676" lon="3.640347">
    <ele>128</ele>
    <time>2020-05-22T17:29:17+02:00</time>
   </trkpt>
   <trkpt lat="47.566965" lon="3.64009">
    <ele>127</ele>
    <time>2017-12-07T09:05:32+01:00</time>
   </trkpt>
   <trkpt lat="47.567038" lon="3.64031">
    <ele>129</ele>
    <time>2020-05-22T17:29:27+02:00</time>
   </trkpt>
   <trkpt lat="47.566853" lon="3.640894">
    <ele>133</ele>
    <time>2017-12-07T09:06:18+01:00</time>
   </trkpt>
   <trkpt lat="47.566763" lon="3.641125">
    <ele>134</ele>
    <time>2020-05-22T17:29:37+02:00</time>
   </trkpt>
   <trkpt lat="47.566668" lon="3.641635">
    <ele>137</ele>
    <time>2017-12-07T09:06:47+01:00</time>
   </trkpt>
   <trkpt lat="47.566629" lon="3.642155">
    <ele>139</ele>
    <time>2017-12-07T09:07:31+01:00</time>
   </trkpt>
   <trkpt lat="47.566574" lon="3.642885">
    <ele>142</ele>
    <time>2020-05-22T17:29:52+02:00</time>
   </trkpt>
   <trkpt lat="47.566592" lon="3.643271">
    <ele>144</ele>
    <time>2017-12-07T09:08:16+01:00</time>
   </trkpt>
   <trkpt lat="47.566636" lon="3.643764">
    <ele>147</ele>
    <time>2017-12-07T09:08:51+01:00</time>
   </trkpt>
   <trkpt lat="47.566603" lon="3.644135">
    <ele>148</ele>
    <time>2020-05-22T17:30:07+02:00</time>
   </trkpt>
   <trkpt lat="47.566618" lon="3.644253">
    <ele>149</ele>
    <time>2017-12-07T09:09:35+01:00</time>
   </trkpt>
   <trkpt lat="47.566694" lon="3.644542">
    <ele>151</ele>
    <time>2020-05-22T17:30:17+02:00</time>
   </trkpt>
   <trkpt lat="47.566719" lon="3.644907">
    <ele>152</ele>
    <time>2017-12-07T09:10:15+01:00</time>
   </trkpt>
   <trkpt lat="47.566694" lon="3.645368">
    <ele>154</ele>
    <time>2017-12-07T09:10:53+01:00</time>
   </trkpt>
   <trkpt lat="47.566602" lon="3.646134">
    <ele>156</ele>
    <time>2017-12-07T09:11:31+01:00</time>
   </trkpt>
   <trkpt lat="47.566582" lon="3.646504">
    <ele>158</ele>
    <time>2020-05-22T17:30:37+02:00</time>
   </trkpt>
   <trkpt lat="47.566628" lon="3.646798">
    <ele>160</ele>
    <time>2017-12-07T09:12:04+01:00</time>
   </trkpt>
   <trkpt lat="47.566459" lon="3.647448">
    <ele>158</ele>
    <time>2017-12-07T09:13:20+01:00</time>
   </trkpt>
   <trkpt lat="47.566287" lon="3.648048">
    <ele>156</ele>
    <time>2017-12-07T09:13:55+01:00</time>
   </trkpt>
   <trkpt lat="47.566314" lon="3.648499">
    <ele>158</ele>
    <time>2017-12-07T09:15:18+01:00</time>
   </trkpt>
   <trkpt lat="47.566343" lon="3.649036">
    <ele>160</ele>
    <time>2020-05-22T17:31:02+02:00</time>
   </trkpt>
   <trkpt lat="47.566246" lon="3.649318">
    <ele>158</ele>
    <time>2017-12-07T09:16:31+01:00</time>
   </trkpt>
   <trkpt lat="47.566279" lon="3.649988">
    <ele>164</ele>
    <time>2017-12-07T09:17:20+01:00</time>
   </trkpt>
   <trkpt lat="47.566222" lon="3.65065">
    <ele>166</ele>
    <time>2017-12-07T09:17:54+01:00</time>
   </trkpt>
   <trkpt lat="47.566102" lon="3.65129">
    <ele>168</ele>
    <time>2017-12-07T09:18:27+01:00</time>
   </trkpt>
   <trkpt lat="47.565934" lon="3.651927">
    <ele>172</ele>
    <time>2017-12-07T09:19:01+01:00</time>
   </trkpt>
   <trkpt lat="47.565757" lon="3.652538">
    <ele>176</ele>
    <time>2017-12-07T09:19:39+01:00</time>
   </trkpt>
   <trkpt lat="47.565547" lon="3.65314">
    <ele>176</ele>
    <time>2017-12-07T09:20:15+01:00</time>
   </trkpt>
   <trkpt lat="47.565358" lon="3.653756">
    <ele>177</ele>
    <time>2017-12-07T09:20:58+01:00</time>
   </trkpt>
   <trkpt lat="47.564982" lon="3.653799">
    <ele>178</ele>
    <time>2020-05-22T17:31:47+02:00</time>
   </trkpt>
   <trkpt lat="47.564656" lon="3.654035">
    <ele>179</ele>
    <time>2017-12-07T09:21:43+01:00</time>
   </trkpt>
   <trkpt lat="47.564461" lon="3.65427">
    <ele>180</ele>
    <time>2017-12-07T09:22:12+01:00</time>
   </trkpt>
   <trkpt lat="47.564012" lon="3.654465">
    <ele>180</ele>
    <time>2017-12-07T09:22:54+01:00</time>
   </trkpt>
   <trkpt lat="47.563534" lon="3.65484">
    <ele>180</ele>
    <time>2017-12-07T09:23:27+01:00</time>
   </trkpt>
   <trkpt lat="47.563184" lon="3.654951">
    <ele>180</ele>
    <time>2017-12-07T09:23:57+01:00</time>
   </trkpt>
   <trkpt lat="47.562774" lon="3.654969">
    <ele>181</ele>
    <time>2017-12-07T09:24:33+01:00</time>
   </trkpt>
   <trkpt lat="47.562282" lon="3.654941">
    <ele>182</ele>
    <time>2017-12-07T09:25:07+01:00</time>
   </trkpt>
   <trkpt lat="47.561807" lon="3.654884">
    <ele>182</ele>
    <time>2017-12-07T09:25:43+01:00</time>
   </trkpt>
   <trkpt lat="47.561285" lon="3.654798">
    <ele>183</ele>
    <time>2017-12-07T09:26:17+01:00</time>
   </trkpt>
   <trkpt lat="47.56088" lon="3.65467">
    <ele>184</ele>
    <time>2017-12-07T09:26:50+01:00</time>
   </trkpt>
   <trkpt lat="47.56033" lon="3.654498">
    <ele>188</ele>
    <time>2017-12-07T09:27:32+01:00</time>
   </trkpt>
   <trkpt lat="47.56011" lon="3.654336">
    <ele>190</ele>
    <time>2017-12-07T09:28:10+01:00</time>
   </trkpt>
   <trkpt lat="47.559953" lon="3.654584">
    <ele>191</ele>
    <time>2017-12-07T09:30:42+01:00</time>
   </trkpt>
   <trkpt lat="47.560341" lon="3.655108">
    <ele>187</ele>
    <time>2017-12-07T09:31:15+01:00</time>
   </trkpt>
   <trkpt lat="47.560706" lon="3.656021">
    <ele>184</ele>
    <time>2017-12-07T09:31:53+01:00</time>
   </trkpt>
   <trkpt lat="47.561228" lon="3.656794">
    <ele>184</ele>
    <time>2017-12-07T09:33:04+01:00</time>
   </trkpt>
   <trkpt lat="47.561587" lon="3.657533">
    <ele>185</ele>
    <time>2017-12-07T09:33:39+01:00</time>
   </trkpt>
   <trkpt lat="47.562206" lon="3.658443">
    <ele>186</ele>
    <time>2017-12-07T09:34:48+01:00</time>
   </trkpt>
   <trkpt lat="47.562711" lon="3.659564">
    <ele>189</ele>
    <time>2017-12-07T09:35:57+01:00</time>
   </trkpt>
   <trkpt lat="47.562907" lon="3.659991">
    <ele>189</ele>
    <time>2017-12-07T09:36:54+01:00</time>
   </trkpt>
   <trkpt lat="47.561836" lon="3.660746">
    <ele>187</ele>
    <time>2017-12-07T09:38:00+01:00</time>
   </trkpt>
   <trkpt lat="47.561385" lon="3.660898">
    <ele>185</ele>
    <time>2017-12-07T09:38:33+01:00</time>
   </trkpt>
   <trkpt lat="47.56001" lon="3.660933">
    <ele>179</ele>
    <time>2017-12-07T09:40:15+01:00</time>
   </trkpt>
   <trkpt lat="47.559552" lon="3.66089">
    <ele>179</ele>
    <time>2017-12-07T09:40:50+01:00</time>
   </trkpt>
   <trkpt lat="47.559142" lon="3.66057">
    <ele>179</ele>
    <time>2017-12-07T09:41:18+01:00</time>
   </trkpt>
   <trkpt lat="47.558784" lon="3.660292">
    <ele>177</ele>
    <time>2017-12-07T09:42:03+01:00</time>
   </trkpt>
   <trkpt lat="47.558495" lon="3.660215">
    <ele>175</ele>
    <time>2017-12-07T09:42:26+01:00</time>
   </trkpt>
   <trkpt lat="47.557844" lon="3.660312">
    <ele>168</ele>
    <time>2020-05-22T17:34:07+02:00</time>
   </trkpt>
   <trkpt lat="47.557163" lon="3.66058">
    <ele>157</ele>
    <time>2017-12-07T09:43:40+01:00</time>
   </trkpt>
   <trkpt lat="47.556902" lon="3.660902">
    <ele>153</ele>
    <time>2017-12-07T09:44:14+01:00</time>
   </trkpt>
   <trkpt lat="47.556678" lon="3.661234">
    <ele>149</ele>
    <time>2017-12-07T09:44:48+01:00</time>
   </trkpt>
   <trkpt lat="47.556608" lon="3.661622">
    <ele>148</ele>
    <time>2020-05-22T17:34:27+02:00</time>
   </trkpt>
   <trkpt lat="47.556613" lon="3.662039">
    <ele>146</ele>
    <time>2017-12-07T09:45:23+01:00</time>
   </trkpt>
   <trkpt lat="47.556591" lon="3.662297">
    <ele>145</ele>
    <time>2017-12-07T09:45:56+01:00</time>
   </trkpt>
   <trkpt lat="47.556345" lon="3.663241">
    <ele>145</ele>
    <time>2017-12-07T09:46:29+01:00</time>
   </trkpt>
   <trkpt lat="47.55619" lon="3.663832">
    <ele>146</ele>
    <time>2017-12-07T09:47:01+01:00</time>
   </trkpt>
   <trkpt lat="47.555985" lon="3.664435">
    <ele>147</ele>
    <time>2017-12-07T09:47:36+01:00</time>
   </trkpt>
   <trkpt lat="47.555812" lon="3.664819">
    <ele>148</ele>
    <time>2017-12-07T09:48:16+01:00</time>
   </trkpt>
   <trkpt lat="47.556093" lon="3.667064">
    <ele>162</ele>
    <time>2017-12-07T09:50:10+01:00</time>
   </trkpt>
   <trkpt lat="47.556159" lon="3.667802">
    <ele>168</ele>
    <time>2020-05-22T17:35:07+02:00</time>
   </trkpt>
   <trkpt lat="47.556316" lon="3.668364">
    <ele>171</ele>
    <time>2017-12-07T09:51:23+01:00</time>
   </trkpt>
   <trkpt lat="47.55655" lon="3.668832">
    <ele>171</ele>
    <time>2017-12-07T09:52:03+01:00</time>
   </trkpt>
   <trkpt lat="47.556112" lon="3.669417">
    <ele>174</ele>
    <time>2017-12-07T09:52:42+01:00</time>
   </trkpt>
   <trkpt lat="47.555766" lon="3.669862">
    <ele>174</ele>
    <time>2017-12-07T09:53:17+01:00</time>
   </trkpt>
   <trkpt lat="47.555411" lon="3.670303">
    <ele>175</ele>
    <time>2017-12-07T09:53:50+01:00</time>
   </trkpt>
   <trkpt lat="47.555056" lon="3.670611">
    <ele>175</ele>
    <time>2017-12-07T09:54:22+01:00</time>
   </trkpt>
   <trkpt lat="47.554933" lon="3.67089">
    <ele>174</ele>
    <time>2017-12-07T09:54:57+01:00</time>
   </trkpt>
   <trkpt lat="47.554846" lon="3.671566">
    <ele>171</ele>
    <time>2020-05-22T17:35:47+02:00</time>
   </trkpt>
   <trkpt lat="47.554742" lon="3.671972">
    <ele>169</ele>
    <time>2017-12-07T09:55:29+01:00</time>
   </trkpt>
   <trkpt lat="47.55451" lon="3.672558">
    <ele>167</ele>
    <time>2017-12-07T09:56:02+01:00</time>
   </trkpt>
   <trkpt lat="47.554361" lon="3.673194">
    <ele>165</ele>
    <time>2017-12-07T09:56:35+01:00</time>
   </trkpt>
   <trkpt lat="47.554181" lon="3.673815">
    <ele>159</ele>
    <time>2017-12-07T09:57:10+01:00</time>
   </trkpt>
   <trkpt lat="47.554071" lon="3.674163">
    <ele>155</ele>
    <time>2017-12-07T09:59:02+01:00</time>
   </trkpt>
   <trkpt lat="47.554361" lon="3.674431">
    <ele>157</ele>
    <time>2017-12-07T09:59:36+01:00</time>
   </trkpt>
   <trkpt lat="47.554397" lon="3.674903">
    <ele>156</ele>
    <time>2020-05-22T17:36:22+02:00</time>
   </trkpt>
   <trkpt lat="47.554607" lon="3.675257">
    <ele>157</ele>
    <time>2017-12-07T10:00:10+01:00</time>
   </trkpt>
   <trkpt lat="47.555194" lon="3.676062">
    <ele>159</ele>
    <time>2017-12-07T10:00:41+01:00</time>
   </trkpt>
   <trkpt lat="47.555512" lon="3.676427">
    <ele>162</ele>
    <time>2017-12-07T10:01:15+01:00</time>
   </trkpt>
   <trkpt lat="47.555621" lon="3.676791">
    <ele>162</ele>
    <time>2017-12-07T10:02:28+01:00</time>
   </trkpt>
   <trkpt lat="47.555686" lon="3.677263">
    <ele>163</ele>
    <time>2020-05-22T17:36:47+02:00</time>
   </trkpt>
   <trkpt lat="47.555621" lon="3.677789">
    <ele>163</ele>
    <time>2017-12-07T10:03:02+01:00</time>
   </trkpt>
   <trkpt lat="47.555396" lon="3.678277">
    <ele>160</ele>
    <time>2017-12-07T10:03:36+01:00</time>
   </trkpt>
   <trkpt lat="47.555259" lon="3.678647">
    <ele>158</ele>
    <time>2017-12-07T10:04:36+01:00</time>
   </trkpt>
   <trkpt lat="47.555754" lon="3.678831">
    <ele>165</ele>
    <time>2020-05-22T17:37:07+02:00</time>
   </trkpt>
   <trkpt lat="47.556367" lon="3.679098">
    <ele>175</ele>
    <time>2017-12-07T10:05:21+01:00</time>
   </trkpt>
   <trkpt lat="47.556424" lon="3.679098">
    <ele>176</ele>
    <time>2017-12-07T10:06:29+01:00</time>
   </trkpt>
   <trkpt lat="47.556584" lon="3.678916">
    <ele>179</ele>
    <time>2020-05-22T17:37:22+02:00</time>
   </trkpt>
   <trkpt lat="47.556946" lon="3.67869">
    <ele>182</ele>
    <time>2017-12-07T10:07:14+01:00</time>
   </trkpt>
   <trkpt lat="47.557257" lon="3.678476">
    <ele>184</ele>
    <time>2017-12-07T10:07:51+01:00</time>
   </trkpt>
   <trkpt lat="47.557749" lon="3.67813">
    <ele>186</ele>
    <time>2017-12-07T10:08:26+01:00</time>
   </trkpt>
   <trkpt lat="47.558129" lon="3.677774">
    <ele>189</ele>
    <time>2017-12-07T10:09:07+01:00</time>
   </trkpt>
   <trkpt lat="47.558531" lon="3.677499">
    <ele>193</ele>
    <time>2017-12-07T10:09:42+01:00</time>
   </trkpt>
   <trkpt lat="47.558914" lon="3.677138">
    <ele>198</ele>
    <time>2017-12-07T10:10:20+01:00</time>
   </trkpt>
   <trkpt lat="47.55927" lon="3.676717">
    <ele>202</ele>
    <time>2017-12-07T10:10:59+01:00</time>
   </trkpt>
   <trkpt lat="47.559584" lon="3.676235">
    <ele>203</ele>
    <time>2017-12-07T10:11:36+01:00</time>
   </trkpt>
   <trkpt lat="47.559939" lon="3.675815">
    <ele>203</ele>
    <time>2017-12-07T10:12:10+01:00</time>
   </trkpt>
   <trkpt lat="47.560241" lon="3.675294">
    <ele>202</ele>
    <time>2017-12-07T10:12:45+01:00</time>
   </trkpt>
   <trkpt lat="47.560532" lon="3.67478">
    <ele>198</ele>
    <time>2017-12-07T10:13:20+01:00</time>
   </trkpt>
   <trkpt lat="47.560914" lon="3.674387">
    <ele>194</ele>
    <time>2017-12-07T10:13:53+01:00</time>
   </trkpt>
   <trkpt lat="47.56131" lon="3.674071">
    <ele>191</ele>
    <time>2017-12-07T10:14:29+01:00</time>
   </trkpt>
   <trkpt lat="47.561712" lon="3.673726">
    <ele>191</ele>
    <time>2017-12-07T10:15:05+01:00</time>
   </trkpt>
   <trkpt lat="47.562069" lon="3.673311">
    <ele>193</ele>
    <time>2017-12-07T10:15:37+01:00</time>
   </trkpt>
   <trkpt lat="47.562339" lon="3.672775">
    <ele>196</ele>
    <time>2017-12-07T10:16:15+01:00</time>
   </trkpt>
   <trkpt lat="47.56256" lon="3.672072">
    <ele>199</ele>
    <time>2017-12-07T10:16:52+01:00</time>
   </trkpt>
   <trkpt lat="47.562941" lon="3.671797">
    <ele>199</ele>
    <time>2017-12-07T10:17:30+01:00</time>
   </trkpt>
   <trkpt lat="47.563255" lon="3.671686">
    <ele>199</ele>
    <time>2017-12-07T10:20:09+01:00</time>
   </trkpt>
   <trkpt lat="47.562951" lon="3.67278">
    <ele>197</ele>
    <time>2017-12-07T10:20:46+01:00</time>
   </trkpt>
   <trkpt lat="47.562748" lon="3.673896">
    <ele>194</ele>
    <time>2017-12-07T10:21:19+01:00</time>
   </trkpt>
   <trkpt lat="47.56324" lon="3.673917">
    <ele>197</ele>
    <time>2017-12-07T10:22:05+01:00</time>
   </trkpt>
   <trkpt lat="47.563677" lon="3.674003">
    <ele>198</ele>
    <time>2017-12-07T10:22:41+01:00</time>
   </trkpt>
   <trkpt lat="47.564123" lon="3.674101">
    <ele>199</ele>
    <time>2017-12-07T10:23:14+01:00</time>
   </trkpt>
   <trkpt lat="47.564579" lon="3.674105">
    <ele>199</ele>
    <time>2017-12-07T10:23:45+01:00</time>
   </trkpt>
   <trkpt lat="47.565042" lon="3.674094">
    <ele>198</ele>
    <time>2017-12-07T10:24:18+01:00</time>
   </trkpt>
   <trkpt lat="47.565513" lon="3.674153">
    <ele>197</ele>
    <time>2017-12-07T10:25:01+01:00</time>
   </trkpt>
   <trkpt lat="47.565557" lon="3.673145">
    <ele>196</ele>
    <time>2017-12-07T10:25:39+01:00</time>
   </trkpt>
   <trkpt lat="47.565618" lon="3.671981">
    <ele>195</ele>
    <time>2017-12-07T10:26:40+01:00</time>
   </trkpt>
   <trkpt lat="47.56558" lon="3.670634">
    <ele>191</ele>
    <time>2017-12-07T10:27:48+01:00</time>
   </trkpt>
   <trkpt lat="47.565588" lon="3.669289">
    <ele>189</ele>
    <time>2017-12-07T10:28:58+01:00</time>
   </trkpt>
   <trkpt lat="47.565563" lon="3.667942">
    <ele>190</ele>
    <time>2017-12-07T10:30:10+01:00</time>
   </trkpt>
   <trkpt lat="47.565544" lon="3.666583">
    <ele>190</ele>
    <time>2017-12-07T10:31:22+01:00</time>
   </trkpt>
   <trkpt lat="47.56547" lon="3.665549">
    <ele>190</ele>
    <time>2017-12-07T10:31:56+01:00</time>
   </trkpt>
   <trkpt lat="47.565499" lon="3.665334">
    <ele>190</ele>
    <time>2020-05-22T17:40:17+02:00</time>
   </trkpt>
   <trkpt lat="47.566063" lon="3.664197">
    <ele>191</ele>
    <time>2017-12-07T10:33:55+01:00</time>
   </trkpt>
   <trkpt lat="47.566628" lon="3.664905">
    <ele>188</ele>
    <time>2017-12-07T10:34:27+01:00</time>
   </trkpt>
   <trkpt lat="47.567023" lon="3.665347">
    <ele>186</ele>
    <time>2017-12-07T10:35:01+01:00</time>
   </trkpt>
   <trkpt lat="47.567642" lon="3.666323">
    <ele>182</ele>
    <time>2017-12-07T10:36:11+01:00</time>
   </trkpt>
   <trkpt lat="47.568284" lon="3.667285">
    <ele>182</ele>
    <time>2017-12-07T10:37:19+01:00</time>
   </trkpt>
   <trkpt lat="47.568857" lon="3.668362">
    <ele>180</ele>
    <time>2017-12-07T10:38:34+01:00</time>
   </trkpt>
   <trkpt lat="47.569407" lon="3.669442">
    <ele>179</ele>
    <time>2017-12-07T10:39:44+01:00</time>
   </trkpt>
   <trkpt lat="47.569688" lon="3.669963">
    <ele>179</ele>
    <time>2017-12-07T10:40:20+01:00</time>
   </trkpt>
   <trkpt lat="47.570015" lon="3.670422">
    <ele>179</ele>
    <time>2017-12-07T10:40:59+01:00</time>
   </trkpt>
   <trkpt lat="47.570759" lon="3.671177">
    <ele>176</ele>
    <time>2017-12-07T10:42:06+01:00</time>
   </trkpt>
   <trkpt lat="47.571542" lon="3.671873">
    <ele>173</ele>
    <time>2017-12-07T10:43:13+01:00</time>
   </trkpt>
   <trkpt lat="47.571972" lon="3.672076">
    <ele>173</ele>
    <time>2017-12-07T10:43:47+01:00</time>
   </trkpt>
   <trkpt lat="47.572314" lon="3.672529">
    <ele>174</ele>
    <time>2017-12-07T10:44:23+01:00</time>
   </trkpt>
   <trkpt lat="47.572651" lon="3.673853">
    <ele>176</ele>
    <time>2017-12-07T10:52:31+01:00</time>
   </trkpt>
   <trkpt lat="47.573085" lon="3.675355">
    <ele>180</ele>
    <time>2017-12-07T10:54:17+01:00</time>
   </trkpt>
   <trkpt lat="47.573534" lon="3.677222">
    <ele>183</ele>
    <time>2017-12-07T10:55:28+01:00</time>
   </trkpt>
   <trkpt lat="47.573928" lon="3.677036">
    <ele>185</ele>
    <time>2017-12-07T10:56:15+01:00</time>
   </trkpt>
   <trkpt lat="47.57432" lon="3.676696">
    <ele>186</ele>
    <time>2017-12-07T10:56:51+01:00</time>
   </trkpt>
   <trkpt lat="47.575004" lon="3.675794">
    <ele>184</ele>
    <time>2017-12-07T10:58:04+01:00</time>
   </trkpt>
   <trkpt lat="47.575636" lon="3.67481">
    <ele>184</ele>
    <time>2017-12-07T10:59:12+01:00</time>
   </trkpt>
   <trkpt lat="47.57572" lon="3.674647">
    <ele>183</ele>
    <time>2017-12-07T10:59:53+01:00</time>
   </trkpt>
   <trkpt lat="47.575966" lon="3.674797">
    <ele>184</ele>
    <time>2017-12-07T11:00:29+01:00</time>
   </trkpt>
   <trkpt lat="47.57696" lon="3.675246">
    <ele>182</ele>
    <time>2017-12-07T11:00:59+01:00</time>
   </trkpt>
   <trkpt lat="47.579208" lon="3.676299">
    <ele>175</ele>
    <time>2017-12-07T11:03:48+01:00</time>
   </trkpt>
   <trkpt lat="47.580417" lon="3.676922">
    <ele>176</ele>
    <time>2017-12-07T11:06:03+01:00</time>
   </trkpt>
   <trkpt lat="47.582201" lon="3.677485">
    <ele>178</ele>
    <time>2017-12-07T11:08:25+01:00</time>
   </trkpt>
   <trkpt lat="47.583981" lon="3.678084">
    <ele>182</ele>
    <time>2017-12-07T11:10:41+01:00</time>
   </trkpt>
   <trkpt lat="47.584415" lon="3.67827">
    <ele>184</ele>
    <time>2017-12-07T11:11:15+01:00</time>
   </trkpt>
   <trkpt lat="47.584665" lon="3.678252">
    <ele>185</ele>
    <time>2020-05-22T17:42:42+02:00</time>
   </trkpt>
   <trkpt lat="47.584506" lon="3.677844">
    <ele>184</ele>
    <time>2017-12-07T11:12:30+01:00</time>
   </trkpt>
   <trkpt lat="47.584448" lon="3.677265">
    <ele>184</ele>
    <time>2020-05-22T17:42:52+02:00</time>
   </trkpt>
   <trkpt lat="47.584521" lon="3.676247">
    <ele>186</ele>
    <time>2017-12-07T11:13:41+01:00</time>
   </trkpt>
   <trkpt lat="47.584503" lon="3.674895">
    <ele>189</ele>
    <time>2017-12-07T11:14:52+01:00</time>
   </trkpt>
   <trkpt lat="47.584419" lon="3.673874">
    <ele>189</ele>
    <time>2017-12-07T11:16:01+01:00</time>
   </trkpt>
   <trkpt lat="47.58439" lon="3.672758">
    <ele>190</ele>
    <time>2017-12-07T11:17:10+01:00</time>
   </trkpt>
   <trkpt lat="47.584539" lon="3.670944">
    <ele>189</ele>
    <time>2017-12-07T11:17:43+01:00</time>
   </trkpt>
   <trkpt lat="47.582997" lon="3.669093">
    <ele>183</ele>
    <time>2017-12-07T11:20:45+01:00</time>
   </trkpt>
   <trkpt lat="47.581589" lon="3.667379">
    <ele>181</ele>
    <time>2017-12-07T11:22:57+01:00</time>
   </trkpt>
   <trkpt lat="47.580627" lon="3.666278">
    <ele>179</ele>
    <time>2020-05-22T17:43:32+02:00</time>
   </trkpt>
   <trkpt lat="47.581893" lon="3.66366">
    <ele>176</ele>
    <time>2017-12-07T11:26:59+01:00</time>
   </trkpt>
   <trkpt lat="47.583222" lon="3.660127">
    <ele>173</ele>
    <time>2017-12-07T11:30:33+01:00</time>
   </trkpt>
   <trkpt lat="47.583637" lon="3.658983">
    <ele>173</ele>
    <time>2017-12-07T11:31:01+01:00</time>
   </trkpt>
   <trkpt lat="47.58527" lon="3.655721">
    <ele>174</ele>
    <time>2017-12-07T11:34:58+01:00</time>
   </trkpt>
   <trkpt lat="47.585606" lon="3.654927">
    <ele>175</ele>
    <time>2017-12-07T11:37:23+01:00</time>
   </trkpt>
   <trkpt lat="47.585099" lon="3.655077">
    <ele>174</ele>
    <time>2017-12-07T11:37:57+01:00</time>
   </trkpt>
   <trkpt lat="47.58465" lon="3.655421">
    <ele>172</ele>
    <time>2017-12-07T11:38:35+01:00</time>
   </trkpt>
   <trkpt lat="47.584095" lon="3.654232">
    <ele>169</ele>
    <time>2017-12-07T11:39:44+01:00</time>
   </trkpt>
   <trkpt lat="47.58354" lon="3.653081">
    <ele>168</ele>
    <time>2017-12-07T11:40:47+01:00</time>
   </trkpt>
   <trkpt lat="47.582678" lon="3.651418">
    <ele>161</ele>
    <time>2017-12-07T11:42:28+01:00</time>
   </trkpt>
   <trkpt lat="47.581592" lon="3.649244">
    <ele>153</ele>
    <time>2017-12-07T11:44:42+01:00</time>
   </trkpt>
   <trkpt lat="47.581478" lon="3.649068">
    <ele>152</ele>
    <time>2017-12-07T11:46:14+01:00</time>
   </trkpt>
   <trkpt lat="47.581596" lon="3.648726">
    <ele>149</ele>
    <time>2017-12-07T11:48:03+01:00</time>
   </trkpt>
   <trkpt lat="47.58163" lon="3.648177">
    <ele>144</ele>
    <time>2020-05-22T17:44:42+02:00</time>
   </trkpt>
   <trkpt lat="47.581886" lon="3.647825">
    <ele>144</ele>
    <time>2017-12-07T11:49:02+01:00</time>
   </trkpt>
   <trkpt lat="47.58261" lon="3.647417">
    <ele>152</ele>
    <time>2017-12-07T11:49:44+01:00</time>
   </trkpt>
   <trkpt lat="47.58316" lon="3.646988">
    <ele>153</ele>
    <time>2017-12-07T11:51:53+01:00</time>
   </trkpt>
   <trkpt lat="47.583316" lon="3.646869">
    <ele>154</ele>
    <time>2017-12-07T11:52:24+01:00</time>
   </trkpt>
   <trkpt lat="47.583511" lon="3.646429">
    <ele>151</ele>
    <time>2020-05-22T17:45:07+02:00</time>
   </trkpt>
   <trkpt lat="47.58371" lon="3.646172">
    <ele>151</ele>
    <time>2017-12-07T11:53:08+01:00</time>
   </trkpt>
   <trkpt lat="47.583985" lon="3.645915">
    <ele>153</ele>
    <time>2017-12-07T11:53:58+01:00</time>
   </trkpt>
   <trkpt lat="47.584216" lon="3.645893">
    <ele>157</ele>
    <time>2017-12-07T11:55:38+01:00</time>
   </trkpt>
   <trkpt lat="47.584332" lon="3.645679">
    <ele>155</ele>
    <time>2020-05-22T17:45:27+02:00</time>
   </trkpt>
   <trkpt lat="47.584318" lon="3.645121">
    <ele>147</ele>
    <time>2020-05-22T17:45:32+02:00</time>
   </trkpt>
   <trkpt lat="47.584665" lon="3.64467">
    <ele>148</ele>
    <time>2017-12-07T11:56:13+01:00</time>
   </trkpt>
   <trkpt lat="47.584781" lon="3.64422">
    <ele>145</ele>
    <time>2020-05-22T17:45:42+02:00</time>
   </trkpt>
   <trkpt lat="47.585156" lon="3.644099">
    <ele>149</ele>
    <time>2017-12-07T11:56:55+01:00</time>
   </trkpt>
   <trkpt lat="47.585545" lon="3.643746">
    <ele>150</ele>
    <time>2017-12-07T11:57:25+01:00</time>
   </trkpt>
   <trkpt lat="47.585938" lon="3.643619">
    <ele>152</ele>
    <time>2017-12-07T11:58:03+01:00</time>
   </trkpt>
   <trkpt lat="47.586395" lon="3.643279">
    <ele>148</ele>
    <time>2017-12-07T11:58:48+01:00</time>
   </trkpt>
   <trkpt lat="47.58672" lon="3.643211">
    <ele>146</ele>
    <time>2017-12-07T11:59:34+01:00</time>
   </trkpt>
   <trkpt lat="47.587198" lon="3.642503">
    <ele>137</ele>
    <time>2017-12-07T12:00:07+01:00</time>
   </trkpt>
   <trkpt lat="47.58727" lon="3.64216">
    <ele>135</ele>
    <time>2017-12-07T12:00:43+01:00</time>
   </trkpt>
   <trkpt lat="47.587342" lon="3.641924">
    <ele>133</ele>
    <time>2017-12-07T12:01:19+01:00</time>
   </trkpt>
   <trkpt lat="47.587719" lon="3.64158">
    <ele>132</ele>
    <time>2020-05-22T17:46:27+02:00</time>
   </trkpt>
   <trkpt lat="47.588104" lon="3.641076">
    <ele>131</ele>
    <time>2017-12-07T12:01:51+01:00</time>
   </trkpt>
   <trkpt lat="47.588478" lon="3.640706">
    <ele>131</ele>
    <time>2017-12-07T12:02:29+01:00</time>
   </trkpt>
   <trkpt lat="47.588811" lon="3.640236">
    <ele>130</ele>
    <time>2017-12-07T12:03:04+01:00</time>
   </trkpt>
   <trkpt lat="47.589069" lon="3.639682">
    <ele>129</ele>
    <time>2017-12-07T12:03:37+01:00</time>
   </trkpt>
   <trkpt lat="47.589267" lon="3.639284">
    <ele>129</ele>
    <time>2017-12-07T12:04:12+01:00</time>
   </trkpt>
   <trkpt lat="47.589677" lon="3.638371">
    <ele>127</ele>
    <time>2017-12-07T12:04:45+01:00</time>
   </trkpt>
   <trkpt lat="47.589793" lon="3.638146">
    <ele>127</ele>
    <time>2017-12-07T12:05:21+01:00</time>
   </trkpt>
   <trkpt lat="47.590219" lon="3.637685">
    <ele>126</ele>
    <time>2017-12-07T12:05:56+01:00</time>
   </trkpt>
   <trkpt lat="47.590617" lon="3.637459">
    <ele>126</ele>
    <time>2017-12-07T12:06:30+01:00</time>
   </trkpt>
   <trkpt lat="47.591406" lon="3.63703">
    <ele>123</ele>
    <time>2017-12-07T12:07:11+01:00</time>
   </trkpt>
   <trkpt lat="47.591586" lon="3.637107">
    <ele>122</ele>
    <time>2017-12-07T12:07:45+01:00</time>
   </trkpt>
   <trkpt lat="47.59184" lon="3.637138">
    <ele>122</ele>
    <time>2017-12-07T12:08:31+01:00</time>
   </trkpt>
   <trkpt lat="47.592455" lon="3.636762">
    <ele>121</ele>
    <time>2017-12-07T12:09:07+01:00</time>
   </trkpt>
   <trkpt lat="47.592752" lon="3.63658">
    <ele>122</ele>
    <time>2017-12-07T12:10:03+01:00</time>
   </trkpt>
   <trkpt lat="47.593201" lon="3.636097">
    <ele>123</ele>
    <time>2017-12-07T12:10:42+01:00</time>
   </trkpt>
   <trkpt lat="47.593563" lon="3.635731">
    <ele>126</ele>
    <time>2017-12-07T12:11:19+01:00</time>
   </trkpt>
   <trkpt lat="47.593979" lon="3.635347">
    <ele>130</ele>
    <time>2017-12-07T12:13:02+01:00</time>
   </trkpt>
   <trkpt lat="47.594276" lon="3.635028">
    <ele>135</ele>
    <time>2020-05-22T17:47:57+02:00</time>
   </trkpt>
   <trkpt lat="47.594377" lon="3.635216">
    <ele>138</ele>
    <time>2017-12-07T12:14:58+01:00</time>
   </trkpt>
   <trkpt lat="47.594529" lon="3.63579">
    <ele>146</ele>
    <time>2017-12-07T12:16:25+01:00</time>
   </trkpt>
   <trkpt lat="47.594569" lon="3.636332">
    <ele>149</ele>
    <time>2017-12-07T12:17:19+01:00</time>
   </trkpt>
   <trkpt lat="47.594894" lon="3.637104">
    <ele>160</ele>
    <time>2020-05-22T17:48:17+02:00</time>
   </trkpt>
   <trkpt lat="47.594996" lon="3.637223">
    <ele>163</ele>
    <time>2017-12-07T12:18:17+01:00</time>
   </trkpt>
   <trkpt lat="47.59522" lon="3.63704">
    <ele>168</ele>
    <time>2017-12-07T12:21:21+01:00</time>
   </trkpt>
   <trkpt lat="47.595516" lon="3.636783">
    <ele>173</ele>
    <time>2017-12-07T12:22:05+01:00</time>
   </trkpt>
   <trkpt lat="47.595639" lon="3.636708">
    <ele>174</ele>
    <time>2020-05-22T17:48:37+02:00</time>
   </trkpt>
   <trkpt lat="47.595972" lon="3.636922">
    <ele>177</ele>
    <time>2017-12-07T12:23:05+01:00</time>
   </trkpt>
   <trkpt lat="47.59603" lon="3.636911">
    <ele>178</ele>
    <time>2017-12-07T13:09:22+01:00</time>
   </trkpt>
   <trkpt lat="47.596309" lon="3.637062">
    <ele>178</ele>
    <time>2017-12-07T13:10:14+01:00</time>
   </trkpt>
   <trkpt lat="47.596443" lon="3.637223">
    <ele>178</ele>
    <time>2017-12-07T13:10:30+01:00</time>
   </trkpt>
   <trkpt lat="47.596587" lon="3.637244">
    <ele>179</ele>
    <time>2017-12-07T13:11:56+01:00</time>
   </trkpt>
   <trkpt lat="47.596518" lon="3.638065">
    <ele>177</ele>
    <time>2017-12-07T13:12:30+01:00</time>
   </trkpt>
   <trkpt lat="47.596493" lon="3.638376">
    <ele>176</ele>
    <time>2020-05-22T17:49:12+02:00</time>
   </trkpt>
   <trkpt lat="47.596348" lon="3.638692">
    <ele>174</ele>
    <time>2017-12-07T13:13:09+01:00</time>
   </trkpt>
   <trkpt lat="47.596739" lon="3.63924">
    <ele>174</ele>
    <time>2017-12-07T13:14:20+01:00</time>
   </trkpt>
   <trkpt lat="47.597007" lon="3.639502">
    <ele>174</ele>
    <time>2020-05-22T17:49:27+02:00</time>
   </trkpt>
   <trkpt lat="47.597235" lon="3.639883">
    <ele>174</ele>
    <time>2017-12-07T13:14:56+01:00</time>
   </trkpt>
   <trkpt lat="47.597133" lon="3.640087">
    <ele>174</ele>
    <time>2020-05-22T17:49:37+02:00</time>
   </trkpt>
   <trkpt lat="47.596775" lon="3.640157">
    <ele>173</ele>
    <time>2017-12-07T13:16:10+01:00</time>
   </trkpt>
   <trkpt lat="47.596674" lon="3.640146">
    <ele>172</ele>
    <time>2020-05-22T17:49:47+02:00</time>
   </trkpt>
   <trkpt lat="47.596312" lon="3.640033">
    <ele>172</ele>
    <time>2017-12-07T13:16:39+01:00</time>
   </trkpt>
   <trkpt lat="47.596204" lon="3.639937">
    <ele>172</ele>
    <time>2020-05-22T17:49:57+02:00</time>
   </trkpt>
   <trkpt lat="47.595849" lon="3.639341">
    <ele>170</ele>
    <time>2017-12-07T13:17:15+01:00</time>
   </trkpt>
   <trkpt lat="47.595647" lon="3.639084">
    <ele>165</ele>
    <time>2017-12-07T13:17:36+01:00</time>
   </trkpt>
   <trkpt lat="47.59535" lon="3.638773">
    <ele>159</ele>
    <time>2017-12-07T13:18:05+01:00</time>
   </trkpt>
   <trkpt lat="47.59497" lon="3.638446">
    <ele>150</ele>
    <time>2017-12-07T13:18:50+01:00</time>
   </trkpt>
   <trkpt lat="47.594898" lon="3.638328">
    <ele>149</ele>
    <time>2020-05-22T17:50:22+02:00</time>
   </trkpt>
   <trkpt lat="47.594699" lon="3.637904">
    <ele>146</ele>
    <time>2017-12-07T13:19:24+01:00</time>
   </trkpt>
   <trkpt lat="47.594435" lon="3.637024">
    <ele>142</ele>
    <time>2017-12-07T13:19:56+01:00</time>
   </trkpt>
   <trkpt lat="47.594218" lon="3.636386">
    <ele>136</ele>
    <time>2017-12-07T13:20:39+01:00</time>
   </trkpt>
   <trkpt lat="47.594094" lon="3.635692">
    <ele>132</ele>
    <time>2017-12-07T13:21:17+01:00</time>
   </trkpt>
   <trkpt lat="47.593983" lon="3.635345">
    <ele>130</ele>
    <time>2020-05-22T17:50:47+02:00</time>
   </trkpt>
   <trkpt lat="47.593563" lon="3.635737">
    <ele>126</ele>
    <time>2017-12-07T13:22:41+01:00</time>
   </trkpt>
   <trkpt lat="47.593433" lon="3.635576">
    <ele>124</ele>
    <time>2020-05-22T17:50:57+02:00</time>
   </trkpt>
   <trkpt lat="47.593216" lon="3.635463">
    <ele>123</ele>
    <time>2017-12-07T13:23:57+01:00</time>
   </trkpt>
   <trkpt lat="47.592814" lon="3.635205">
    <ele>122</ele>
    <time>2017-12-07T13:24:37+01:00</time>
   </trkpt>
   <trkpt lat="47.591953" lon="3.634814">
    <ele>123</ele>
    <time>2017-12-07T13:26:54+01:00</time>
   </trkpt>
   <trkpt lat="47.591742" lon="3.634705">
    <ele>123</ele>
    <time>2017-12-07T13:27:18+01:00</time>
   </trkpt>
   <trkpt lat="47.591295" lon="3.634602">
    <ele>123</ele>
    <time>2017-12-07T13:28:50+01:00</time>
   </trkpt>
   <trkpt lat="47.591139" lon="3.634471">
    <ele>123</ele>
    <time>2020-05-22T17:51:27+02:00</time>
   </trkpt>
   <trkpt lat="47.591245" lon="3.633936">
    <ele>127</ele>
    <time>2017-12-07T13:32:49+01:00</time>
   </trkpt>
   <trkpt lat="47.591334" lon="3.6335">
    <ele>132</ele>
    <time>2020-05-22T17:51:37+02:00</time>
   </trkpt>
   <trkpt lat="47.590842" lon="3.633457">
    <ele>130</ele>
    <time>2017-12-07T13:33:49+01:00</time>
   </trkpt>
   <trkpt lat="47.590423" lon="3.633445">
    <ele>129</ele>
    <time>2017-12-07T13:34:22+01:00</time>
   </trkpt>
   <trkpt lat="47.58996" lon="3.633424">
    <ele>127</ele>
    <time>2017-12-07T13:35:05+01:00</time>
   </trkpt>
   <trkpt lat="47.589525" lon="3.633392">
    <ele>127</ele>
    <time>2017-12-07T13:35:40+01:00</time>
   </trkpt>
   <trkpt lat="47.588881" lon="3.633312">
    <ele>127</ele>
    <time>2017-12-07T13:36:15+01:00</time>
   </trkpt>
   <trkpt lat="47.588733" lon="3.633199">
    <ele>127</ele>
    <time>2020-05-22T17:52:07+02:00</time>
   </trkpt>
   <trkpt lat="47.588639" lon="3.633264">
    <ele>127</ele>
    <time>2020-05-22T17:52:12+02:00</time>
   </trkpt>
   <trkpt lat="47.588353" lon="3.633328">
    <ele>127</ele>
    <time>2017-12-07T13:36:52+01:00</time>
   </trkpt>
   <trkpt lat="47.588111" lon="3.633543">
    <ele>128</ele>
    <time>2017-12-07T13:37:27+01:00</time>
   </trkpt>
   <trkpt lat="47.5878" lon="3.633897">
    <ele>130</ele>
    <time>2017-12-07T13:38:00+01:00</time>
   </trkpt>
   <trkpt lat="47.587411" lon="3.63434">
    <ele>131</ele>
    <time>2017-12-07T13:38:36+01:00</time>
   </trkpt>
   <trkpt lat="47.586805" lon="3.635093">
    <ele>130</ele>
    <time>2017-12-07T13:39:11+01:00</time>
   </trkpt>
   <trkpt lat="47.586689" lon="3.635211">
    <ele>130</ele>
    <time>2017-12-07T13:39:45+01:00</time>
   </trkpt>
   <trkpt lat="47.586569" lon="3.635254">
    <ele>130</ele>
    <time>2020-05-22T17:52:47+02:00</time>
   </trkpt>
   <trkpt lat="47.586265" lon="3.635275">
    <ele>130</ele>
    <time>2017-12-07T13:40:21+01:00</time>
   </trkpt>
   <trkpt lat="47.585743" lon="3.635356">
    <ele>131</ele>
    <time>2017-12-07T13:40:54+01:00</time>
   </trkpt>
   <trkpt lat="47.585547" lon="3.635452">
    <ele>131</ele>
    <time>2017-12-07T13:41:27+01:00</time>
   </trkpt>
   <trkpt lat="47.585005" lon="3.63586">
    <ele>133</ele>
    <time>2017-12-07T13:41:59+01:00</time>
   </trkpt>
   <trkpt lat="47.584708" lon="3.636053">
    <ele>134</ele>
    <time>2017-12-07T13:42:35+01:00</time>
   </trkpt>
   <trkpt lat="47.583883" lon="3.636461">
    <ele>136</ele>
    <time>2017-12-07T13:43:08+01:00</time>
   </trkpt>
   <trkpt lat="47.583644" lon="3.636568">
    <ele>136</ele>
    <time>2017-12-07T13:43:42+01:00</time>
   </trkpt>
   <trkpt lat="47.583109" lon="3.636665">
    <ele>136</ele>
    <time>2017-12-07T13:44:20+01:00</time>
   </trkpt>
   <trkpt lat="47.582815" lon="3.63671">
    <ele>136</ele>
    <time>2017-12-07T13:45:13+01:00</time>
   </trkpt>
   <trkpt lat="47.582298" lon="3.63675">
    <ele>135</ele>
    <time>2017-12-07T13:45:45+01:00</time>
   </trkpt>
   <trkpt lat="47.582132" lon="3.636836">
    <ele>135</ele>
    <time>2017-12-07T13:46:19+01:00</time>
   </trkpt>
   <trkpt lat="47.58153" lon="3.63734">
    <ele>137</ele>
    <time>2017-12-07T13:46:55+01:00</time>
   </trkpt>
   <trkpt lat="47.58114" lon="3.637695">
    <ele>139</ele>
    <time>2017-12-07T13:47:31+01:00</time>
   </trkpt>
   <trkpt lat="47.580753" lon="3.638046">
    <ele>142</ele>
    <time>2017-12-07T13:48:10+01:00</time>
   </trkpt>
   <trkpt lat="47.580156" lon="3.638574">
    <ele>147</ele>
    <time>2017-12-07T13:48:48+01:00</time>
   </trkpt>
   <trkpt lat="47.579922" lon="3.638215">
    <ele>147</ele>
    <time>2017-12-07T13:50:44+01:00</time>
   </trkpt>
   <trkpt lat="47.579602" lon="3.637738">
    <ele>150</ele>
    <time>2017-12-07T13:51:19+01:00</time>
   </trkpt>
   <trkpt lat="47.579316" lon="3.637221">
    <ele>153</ele>
    <time>2017-12-07T13:51:55+01:00</time>
   </trkpt>
   <trkpt lat="47.578975" lon="3.636766">
    <ele>156</ele>
    <time>2017-12-07T13:52:30+01:00</time>
   </trkpt>
   <trkpt lat="47.578708" lon="3.636622">
    <ele>159</ele>
    <time>2017-12-07T13:53:09+01:00</time>
   </trkpt>
   <trkpt lat="47.578057" lon="3.636557">
    <ele>164</ele>
    <time>2017-12-07T13:53:47+01:00</time>
   </trkpt>
   <trkpt lat="47.577145" lon="3.636386">
    <ele>168</ele>
    <time>2017-12-07T13:54:20+01:00</time>
   </trkpt>
   <trkpt lat="47.577391" lon="3.637115">
    <ele>170</ele>
    <time>2017-12-07T13:56:15+01:00</time>
   </trkpt>
   <trkpt lat="47.577608" lon="3.637974">
    <ele>170</ele>
    <time>2017-12-07T13:56:52+01:00</time>
   </trkpt>
   <trkpt lat="47.577652" lon="3.638252">
    <ele>170</ele>
    <time>2017-12-07T13:57:26+01:00</time>
   </trkpt>
   <trkpt lat="47.577861" lon="3.638896">
    <ele>168</ele>
    <time>2017-12-07T13:58:01+01:00</time>
   </trkpt>
   <trkpt lat="47.577912" lon="3.639347">
    <ele>168</ele>
    <time>2017-12-07T13:58:43+01:00</time>
   </trkpt>
   <trkpt lat="47.577746" lon="3.639561">
    <ele>170</ele>
    <time>2020-05-22T17:55:07+02:00</time>
   </trkpt>
   <trkpt lat="47.57763" lon="3.639454">
    <ele>171</ele>
    <time>2017-12-07T13:59:29+01:00</time>
   </trkpt>
   <trkpt lat="47.577442" lon="3.639422">
    <ele>173</ele>
    <time>2020-05-22T17:55:17+02:00</time>
   </trkpt>
   <trkpt lat="47.577239" lon="3.639336">
    <ele>173</ele>
    <time>2020-05-22T17:55:22+02:00</time>
   </trkpt>
   <trkpt lat="47.576971" lon="3.639027">
    <ele>173</ele>
    <time>2017-12-07T14:00:09+01:00</time>
   </trkpt>
   <trkpt lat="47.576544" lon="3.638628">
    <ele>174</ele>
    <time>2017-12-07T14:00:45+01:00</time>
   </trkpt>
   <trkpt lat="47.576211" lon="3.638349">
    <ele>176</ele>
    <time>2017-12-07T14:02:06+01:00</time>
   </trkpt>
   <trkpt lat="47.575835" lon="3.638049">
    <ele>178</ele>
    <time>2017-12-07T14:02:43+01:00</time>
   </trkpt>
   <trkpt lat="47.575415" lon="3.637598">
    <ele>182</ele>
    <time>2017-12-07T14:03:23+01:00</time>
   </trkpt>
   <trkpt lat="47.574655" lon="3.636804">
    <ele>186</ele>
    <time>2017-12-07T14:03:55+01:00</time>
   </trkpt>
   <trkpt lat="47.57413" lon="3.635728">
    <ele>189</ele>
    <time>2017-12-07T14:05:46+01:00</time>
   </trkpt>
   <trkpt lat="47.573801" lon="3.635517">
    <ele>189</ele>
    <time>2017-12-07T14:06:25+01:00</time>
   </trkpt>
   <trkpt lat="47.573432" lon="3.635366">
    <ele>191</ele>
    <time>2017-12-07T14:06:53+01:00</time>
   </trkpt>
   <trkpt lat="47.572949" lon="3.63479">
    <ele>190</ele>
    <time>2017-12-07T14:07:29+01:00</time>
   </trkpt>
   <trkpt lat="47.572567" lon="3.634422">
    <ele>191</ele>
    <time>2017-12-07T14:08:01+01:00</time>
   </trkpt>
   <trkpt lat="47.572151" lon="3.634068">
    <ele>190</ele>
    <time>2017-12-07T14:08:42+01:00</time>
   </trkpt>
   <trkpt lat="47.571817" lon="3.633686">
    <ele>188</ele>
    <time>2017-12-07T14:09:06+01:00</time>
   </trkpt>
   <trkpt lat="47.571398" lon="3.633113">
    <ele>186</ele>
    <time>2017-12-07T14:09:41+01:00</time>
   </trkpt>
   <trkpt lat="47.571242" lon="3.632676">
    <ele>187</ele>
    <time>2017-12-07T14:10:13+01:00</time>
   </trkpt>
   <trkpt lat="47.571037" lon="3.63208">
    <ele>187</ele>
    <time>2017-12-07T14:10:47+01:00</time>
   </trkpt>
   <trkpt lat="47.57083" lon="3.631468">
    <ele>187</ele>
    <time>2017-12-07T14:11:22+01:00</time>
   </trkpt>
   <trkpt lat="47.57063" lon="3.630872">
    <ele>187</ele>
    <time>2017-12-07T14:11:57+01:00</time>
   </trkpt>
   <trkpt lat="47.5704" lon="3.630297">
    <ele>188</ele>
    <time>2017-12-07T14:12:30+01:00</time>
   </trkpt>
   <trkpt lat="47.570173" lon="3.629703">
    <ele>188</ele>
    <time>2017-12-07T14:13:05+01:00</time>
   </trkpt>
   <trkpt lat="47.569981" lon="3.629095">
    <ele>189</ele>
    <time>2017-12-07T14:13:40+01:00</time>
   </trkpt>
   <trkpt lat="47.569836" lon="3.628458">
    <ele>190</ele>
    <time>2017-12-07T14:14:14+01:00</time>
   </trkpt>
   <trkpt lat="47.569637" lon="3.627855">
    <ele>190</ele>
    <time>2017-12-07T14:14:47+01:00</time>
   </trkpt>
   <trkpt lat="47.569394" lon="3.627279">
    <ele>190</ele>
    <time>2017-12-07T14:15:23+01:00</time>
   </trkpt>
   <trkpt lat="47.569179" lon="3.626692">
    <ele>189</ele>
    <time>2017-12-07T14:16:43+01:00</time>
   </trkpt>
   <trkpt lat="47.568951" lon="3.626109">
    <ele>189</ele>
    <time>2017-12-07T14:17:17+01:00</time>
   </trkpt>
   <trkpt lat="47.568734" lon="3.625508">
    <ele>189</ele>
    <time>2017-12-07T14:17:54+01:00</time>
   </trkpt>
   <trkpt lat="47.568524" lon="3.625013">
    <ele>190</ele>
    <time>2017-12-07T14:18:52+01:00</time>
   </trkpt>
   <trkpt lat="47.5678" lon="3.625818">
    <ele>190</ele>
    <time>2017-12-07T14:19:29+01:00</time>
   </trkpt>
   <trkpt lat="47.567308" lon="3.624863">
    <ele>190</ele>
    <time>2017-12-07T14:20:13+01:00</time>
   </trkpt>
   <trkpt lat="47.566526" lon="3.626204">
    <ele>185</ele>
    <time>2017-12-07T14:21:07+01:00</time>
   </trkpt>
   <trkpt lat="47.566497" lon="3.626354">
    <ele>185</ele>
    <time>2020-05-22T17:58:02+02:00</time>
   </trkpt>
   <trkpt lat="47.566382" lon="3.626579">
    <ele>183</ele>
    <time>2017-12-07T14:22:16+01:00</time>
   </trkpt>
   <trkpt lat="47.566534" lon="3.626773">
    <ele>185</ele>
    <time>2017-12-07T14:23:02+01:00</time>
   </trkpt>
   <trkpt lat="47.567146" lon="3.627318">
    <ele>188</ele>
    <time>2017-12-07T14:23:38+01:00</time>
   </trkpt>
   <trkpt lat="47.567525" lon="3.627663">
    <ele>189</ele>
    <time>2017-12-07T14:24:18+01:00</time>
   </trkpt>
   <trkpt lat="47.567315" lon="3.628478">
    <ele>186</ele>
    <time>2017-12-07T14:25:00+01:00</time>
   </trkpt>
   <trkpt lat="47.567122" lon="3.629089">
    <ele>184</ele>
    <time>2017-12-07T14:25:35+01:00</time>
   </trkpt>
   <trkpt lat="47.566923" lon="3.62969">
    <ele>181</ele>
    <time>2017-12-07T14:26:09+01:00</time>
   </trkpt>
   <trkpt lat="47.566683" lon="3.630263">
    <ele>178</ele>
    <time>2017-12-07T14:26:48+01:00</time>
   </trkpt>
   <trkpt lat="47.566473" lon="3.630864">
    <ele>175</ele>
    <time>2017-12-07T14:27:21+01:00</time>
   </trkpt>
   <trkpt lat="47.566324" lon="3.631311">
    <ele>173</ele>
    <time>2017-12-07T14:27:58+01:00</time>
   </trkpt>
   <trkpt lat="47.566353" lon="3.631483">
    <ele>174</ele>
    <time>2020-05-22T17:58:57+02:00</time>
   </trkpt>
   <trkpt lat="47.566758" lon="3.631976">
    <ele>175</ele>
    <time>2020-05-22T17:59:02+02:00</time>
   </trkpt>
   <trkpt lat="47.566859" lon="3.632255">
    <ele>173</ele>
    <time>2017-12-07T14:29:46+01:00</time>
   </trkpt>
   <trkpt lat="47.56615" lon="3.632062">
    <ele>166</ele>
    <time>2020-05-22T17:59:12+02:00</time>
   </trkpt>
   <trkpt lat="47.566012" lon="3.631987">
    <ele>165</ele>
    <time>2020-05-22T17:59:17+02:00</time>
   </trkpt>
   <trkpt lat="47.565651" lon="3.631476">
    <ele>163</ele>
    <time>2017-12-07T14:30:14+01:00</time>
   </trkpt>
   <trkpt lat="47.565585" lon="3.631332">
    <ele>161</ele>
    <time>2020-05-22T17:59:27+02:00</time>
   </trkpt>
   <trkpt lat="47.565484" lon="3.630957">
    <ele>157</ele>
    <time>2017-12-07T14:31:04+01:00</time>
   </trkpt>
   <trkpt lat="47.565527" lon="3.630571">
    <ele>157</ele>
    <time>2020-05-22T17:59:37+02:00</time>
   </trkpt>
   <trkpt lat="47.565412" lon="3.630399">
    <ele>154</ele>
    <time>2017-12-07T14:32:33+01:00</time>
   </trkpt>
   <trkpt lat="47.565086" lon="3.630292">
    <ele>147</ele>
    <time>2017-12-07T14:33:47+01:00</time>
   </trkpt>
   <trkpt lat="47.564808" lon="3.630582">
    <ele>147</ele>
    <time>2017-12-07T14:34:22+01:00</time>
   </trkpt>
   <trkpt lat="47.564664" lon="3.630904">
    <ele>148</ele>
    <time>2020-05-22T17:59:57+02:00</time>
   </trkpt>
   <trkpt lat="47.564591" lon="3.631226">
    <ele>147</ele>
    <time>2020-05-22T18:00:02+02:00</time>
   </trkpt>
   <trkpt lat="47.564577" lon="3.631548">
    <ele>146</ele>
    <time>2017-12-07T14:34:57+01:00</time>
   </trkpt>
   <trkpt lat="47.56462" lon="3.631891">
    <ele>146</ele>
    <time>2020-05-22T18:00:12+02:00</time>
   </trkpt>
   <trkpt lat="47.564736" lon="3.632363">
    <ele>144</ele>
    <time>2017-12-07T14:35:31+01:00</time>
   </trkpt>
   <trkpt lat="47.564881" lon="3.632685">
    <ele>141</ele>
    <time>2017-12-07T14:36:03+01:00</time>
   </trkpt>
   <trkpt lat="47.564953" lon="3.632964">
    <ele>139</ele>
    <time>2020-05-22T18:00:27+02:00</time>
   </trkpt>
   <trkpt lat="47.565087" lon="3.633355">
    <ele>138</ele>
    <time>2017-12-07T14:36:37+01:00</time>
   </trkpt>
   <trkpt lat="47.565115" lon="3.633618">
    <ele>139</ele>
    <time>2020-05-22T18:00:37+02:00</time>
   </trkpt>
   <trkpt lat="47.56526" lon="3.63395">
    <ele>139</ele>
    <time>2017-12-07T14:37:15+01:00</time>
   </trkpt>
   <trkpt lat="47.565535" lon="3.634551">
    <ele>134</ele>
    <time>2017-12-07T14:37:48+01:00</time>
   </trkpt>
   <trkpt lat="47.565636" lon="3.634755">
    <ele>131</ele>
    <time>2020-05-22T18:00:52+02:00</time>
   </trkpt>
   <trkpt lat="47.565764" lon="3.63496">
    <ele>128</ele>
    <time>2020-05-22T18:00:57+02:00</time>
   </trkpt>
   <trkpt lat="47.56572" lon="3.635196">
    <ele>127</ele>
    <time>2017-12-07T14:38:30+01:00</time>
   </trkpt>
   <trkpt lat="47.565141" lon="3.635904">
    <ele>128</ele>
    <time>2017-12-07T14:39:03+01:00</time>
   </trkpt>
   <trkpt lat="47.564939" lon="3.636268">
    <ele>129</ele>
    <time>2017-12-07T14:39:43+01:00</time>
   </trkpt>
   <trkpt lat="47.564446" lon="3.637384">
    <ele>132</ele>
    <time>2017-12-07T14:40:24+01:00</time>
   </trkpt>
   <trkpt lat="47.564258" lon="3.637813">
    <ele>132</ele>
    <time>2017-12-07T14:41:39+01:00</time>
   </trkpt>
   <trkpt lat="47.564055" lon="3.638629">
    <ele>131</ele>
    <time>2017-12-07T14:42:16+01:00</time>
   </trkpt>
   <trkpt lat="47.563911" lon="3.639144">
    <ele>131</ele>
    <time>2017-12-07T14:42:52+01:00</time>
   </trkpt>
   <trkpt lat="47.563621" lon="3.640109">
    <ele>131</ele>
    <time>2017-12-07T14:44:02+01:00</time>
   </trkpt>
   <trkpt lat="47.56336" lon="3.641032">
    <ele>131</ele>
    <time>2017-12-07T14:44:38+01:00</time>
   </trkpt>
   <trkpt lat="47.563245" lon="3.641461">
    <ele>132</ele>
    <time>2020-05-22T18:01:47+02:00</time>
   </trkpt>
   <trkpt lat="47.562984" lon="3.641375">
    <ele>135</ele>
    <time>2017-12-07T14:45:37+01:00</time>
   </trkpt>
   <trkpt lat="47.562781" lon="3.64144">
    <ele>136</ele>
    <time>2020-05-22T18:01:57+02:00</time>
   </trkpt>
   <trkpt lat="47.562492" lon="3.641912">
    <ele>137</ele>
    <time>2020-05-22T18:02:02+02:00</time>
   </trkpt>
   <trkpt lat="47.561782" lon="3.642663">
    <ele>139</ele>
    <time>2017-12-07T14:47:46+01:00</time>
   </trkpt>
   <trkpt lat="47.561821" lon="3.642844">
    <ele>138</ele>
    <time>2017-12-07T14:48:23+01:00</time>
   </trkpt>
   <trkpt lat="47.561814" lon="3.643113">
    <ele>137</ele>
    <time>2020-05-22T18:02:17+02:00</time>
   </trkpt>
   <trkpt lat="47.56161" lon="3.643826">
    <ele>136</ele>
    <time>2017-12-07T14:49:01+01:00</time>
   </trkpt>
   <trkpt lat="47.561459" lon="3.644346">
    <ele>135</ele>
    <time>2020-05-22T18:02:27+02:00</time>
   </trkpt>
   <trkpt lat="47.561452" lon="3.644561">
    <ele>135</ele>
    <time>2017-12-07T14:49:39+01:00</time>
   </trkpt>
   <trkpt lat="47.561546" lon="3.64469">
    <ele>135</ele>
    <time>2020-05-22T18:02:37+02:00</time>
   </trkpt>
   <trkpt lat="47.561849" lon="3.644806">
    <ele>136</ele>
    <time>2017-12-07T14:50:26+01:00</time>
   </trkpt>
   <trkpt lat="47.562296" lon="3.644942">
    <ele>135</ele>
    <time>2017-12-07T14:51:03+01:00</time>
   </trkpt>
   <trkpt lat="47.562653" lon="3.64513">
    <ele>133</ele>
    <time>2017-12-07T14:51:49+01:00</time>
   </trkpt>
   <trkpt lat="47.562733" lon="3.645258">
    <ele>133</ele>
    <time>2020-05-22T18:02:57+02:00</time>
   </trkpt>
   <trkpt lat="47.562733" lon="3.645548">
    <ele>132</ele>
    <time>2020-05-22T18:03:02+02:00</time>
   </trkpt>
   <trkpt lat="47.563117" lon="3.645612">
    <ele>129</ele>
    <time>2017-12-07T14:53:06+01:00</time>
   </trkpt>
   <trkpt lat="47.563477" lon="3.645549">
    <ele>128</ele>
    <time>2017-12-07T14:53:33+01:00</time>
   </trkpt>
   <trkpt lat="47.563804" lon="3.645484">
    <ele>128</ele>
    <time>2020-05-22T18:03:17+02:00</time>
   </trkpt>
   <trkpt lat="47.564108" lon="3.645516">
    <ele>127</ele>
    <time>2017-12-07T14:54:05+01:00</time>
   </trkpt>
   <trkpt lat="47.564081" lon="3.644857">
    <ele>126</ele>
    <time>2017-12-07T14:54:53+01:00</time>
   </trkpt>
   <trkpt lat="47.564029" lon="3.644454">
    <ele>127</ele>
    <time>2017-12-07T14:55:34+01:00</time>
   </trkpt>
   <trkpt lat="47.563862" lon="3.64337">
    <ele>130</ele>
    <time>2017-12-07T14:56:09+01:00</time>
   </trkpt>
   <trkpt lat="47.563862" lon="3.643177">
    <ele>130</ele>
    <time>2020-05-22T18:03:42+02:00</time>
   </trkpt>
   <trkpt lat="47.563926" lon="3.642859">
    <ele>129</ele>
    <time>2017-12-07T14:58:19+01:00</time>
   </trkpt>
   <trkpt lat="47.563942" lon="3.642683">
    <ele>129</ele>
    <time>2020-05-22T18:03:52+02:00</time>
   </trkpt>
   <trkpt lat="47.563891" lon="3.64234">
    <ele>129</ele>
    <time>2017-12-07T14:58:55+01:00</time>
   </trkpt>
   <trkpt lat="47.563949" lon="3.641814">
    <ele>128</ele>
    <time>2017-12-07T14:59:34+01:00</time>
   </trkpt>
   <trkpt lat="47.564145" lon="3.641718">
    <ele>127</ele>
    <time>2020-05-22T18:04:07+02:00</time>
   </trkpt>
   <trkpt lat="47.564347" lon="3.641525">
    <ele>127</ele>
    <time>2017-12-07T15:00:07+01:00</time>
   </trkpt>
   <trkpt lat="47.564594" lon="3.641332">
    <ele>126</ele>
    <time>2020-05-22T18:04:17+02:00</time>
   </trkpt>
   <trkpt lat="47.564999" lon="3.641289">
    <ele>127</ele>
    <time>2017-12-07T15:00:38+01:00</time>
   </trkpt>
   <trkpt lat="47.565538" lon="3.641256">
    <ele>127</ele>
    <time>2017-12-07T15:01:15+01:00</time>
   </trkpt>
   <trkpt lat="47.565996" lon="3.641234">
    <ele>128</ele>
    <time>2017-12-07T15:01:59+01:00</time>
   </trkpt>
   <trkpt lat="47.566419" lon="3.641356">
    <ele>133</ele>
    <time>2017-12-07T15:02:53+01:00</time>
   </trkpt>
   <trkpt lat="47.566186" lon="3.642319">
    <ele>133</ele>
    <time>2017-12-07T15:03:28+01:00</time>
   </trkpt>
   <trkpt lat="47.566136" lon="3.642651">
    <ele>133</ele>
    <time>2017-12-07T15:04:03+01:00</time>
   </trkpt>
   <trkpt lat="47.565983" lon="3.643713">
    <ele>132</ele>
    <time>2017-12-07T15:04:40+01:00</time>
   </trkpt>
   <trkpt lat="47.565905" lon="3.644253">
    <ele>132</ele>
    <time>2017-12-07T15:05:17+01:00</time>
   </trkpt>
   <trkpt lat="47.56586" lon="3.644872">
    <ele>132</ele>
    <time>2017-12-07T15:05:53+01:00</time>
   </trkpt>
   <trkpt lat="47.565802" lon="3.645527">
    <ele>132</ele>
    <time>2017-12-07T15:06:29+01:00</time>
   </trkpt>
   <trkpt lat="47.565714" lon="3.646244">
    <ele>134</ele>
    <time>2017-12-07T15:07:03+01:00</time>
   </trkpt>
   <trkpt lat="47.565658" lon="3.646911">
    <ele>137</ele>
    <time>2017-12-07T15:07:39+01:00</time>
   </trkpt>
   <trkpt lat="47.565597" lon="3.647503">
    <ele>140</ele>
    <time>2017-12-07T15:08:16+01:00</time>
   </trkpt>
   <trkpt lat="47.565485" lon="3.648244">
    <ele>139</ele>
    <time>2020-05-22T18:05:27+02:00</time>
   </trkpt>
   <trkpt lat="47.565478" lon="3.648802">
    <ele>139</ele>
    <time>2017-12-07T15:08:52+01:00</time>
   </trkpt>
  </trkseg>
 </trk></gpx>